sensor_id;sensor_type;location;lat;lon;timestamp;pressure;altitude;pressure_sealevel;temperature;humidity
78573;BME280;67862;0.000;0.000;2023-07-31T00:01:21;98799.41;;;23.98;60.00
78573;BME280;67862;0.000;0.000;2023-07-31T00:03:47;98806.00;;;23.97;60.09
78573;BME280;67862;0.000;0.000;2023-07-31T00:06:12;98799.41;;;23.98;60.36
78573;BME280;67862;0.000;0.000;2023-07-31T00:08:38;98800.53;;;23.97;60.20
78573;BME280;67862;0.000;0.000;2023-07-31T00:11:03;98807.94;;;23.96;60.46
78573;BME280;67862;0.000;0.000;2023-07-31T00:13:28;98814.22;;;23.97;60.42
78573;BME280;67862;0.000;0.000;2023-07-31T00:15:56;98817.28;;;23.95;60.11
78573;BME280;67862;0.000;0.000;2023-07-31T00:18:21;98812.63;;;23.96;59.98
78573;BME280;67862;0.000;0.000;2023-07-31T00:20:47;98808.25;;;23.95;60.23
78573;BME280;67862;0.000;0.000;2023-07-31T00:23:12;98815.38;;;23.96;60.14
78573;BME280;67862;0.000;0.000;2023-07-31T00:25:38;98809.06;;;23.95;60.15
78573;BME280;67862;0.000;0.000;2023-07-31T00:28:03;98811.00;;;23.95;60.20
78573;BME280;67862;0.000;0.000;2023-07-31T00:30:28;98809.06;;;23.95;60.04
78573;BME280;67862;0.000;0.000;2023-07-31T00:32:54;98810.19;;;23.94;60.32
78573;BME280;67862;0.000;0.000;2023-07-31T00:35:19;98811.00;;;23.95;60.30
78573;BME280;67862;0.000;0.000;2023-07-31T00:37:45;98806.66;;;23.94;60.45
78573;BME280;67862;0.000;0.000;2023-07-31T00:40:10;98810.19;;;23.94;60.15
78573;BME280;67862;0.000;0.000;2023-07-31T00:42:35;98812.13;;;23.94;59.91
78573;BME280;67862;0.000;0.000;2023-07-31T00:45:01;98805.00;;;23.93;60.06
78573;BME280;67862;0.000;0.000;2023-07-31T00:47:26;98801.16;;;23.94;60.52
78573;BME280;67862;0.000;0.000;2023-07-31T00:49:51;98804.19;;;23.92;60.47
78573;BME280;67862;0.000;0.000;2023-07-31T00:52:17;98800.34;;;23.93;60.22
78573;BME280;67862;0.000;0.000;2023-07-31T00:54:43;98799.53;;;23.93;60.47
78573;BME280;67862;0.000;0.000;2023-07-31T00:57:09;98796.78;;;23.93;60.24
78573;BME280;67862;0.000;0.000;2023-07-31T00:59:34;98799.53;;;23.93;59.95
78573;BME280;67862;0.000;0.000;2023-07-31T01:05:11;98791.63;;;23.91;60.31
78573;BME280;67862;0.000;0.000;2023-07-31T01:07:49;98795.16;;;23.92;60.27
78573;BME280;67862;0.000;0.000;2023-07-31T01:10:26;98808.88;;;23.92;60.38
78573;BME280;67862;0.000;0.000;2023-07-31T01:12:54;98806.47;;;23.90;nan
78573;BME280;67862;0.000;0.000;2023-07-31T01:15:21;98805.31;;;23.91;60.17
78573;BME280;67862;0.000;0.000;2023-07-31T01:17:46;98795.16;;;23.92;60.37
78573;BME280;67862;0.000;0.000;2023-07-31T01:20:13;98798.22;;;23.90;60.34
78573;BME280;67862;0.000;0.000;2023-07-31T01:25:16;98800.16;;;23.90;60.36
78573;BME280;67862;0.000;0.000;2023-07-31T01:27:51;98800.16;;;23.90;60.47
78573;BME280;67862;0.000;0.000;2023-07-31T01:30:20;98802.91;;;23.90;60.40
78573;BME280;67862;0.000;0.000;2023-07-31T01:32:47;98813.06;;;23.89;60.26
78573;BME280;67862;0.000;0.000;2023-07-31T01:35:13;98808.72;;;23.88;60.33
78573;BME280;67862;0.000;0.000;2023-07-31T01:37:38;98808.38;;;23.90;60.09
78573;BME280;67862;0.000;0.000;2023-07-31T01:40:04;98804.03;;;23.89;60.30
78573;BME280;67862;0.000;0.000;2023-07-31T01:42:30;98800.47;;;23.88;60.16
78573;BME280;67862;0.000;0.000;2023-07-31T01:44:55;98805.97;;;23.88;60.09
78573;BME280;67862;0.000;0.000;2023-07-31T01:47:20;98800.47;;;23.88;60.36
78573;BME280;67862;0.000;0.000;2023-07-31T01:49:46;98798.88;;;23.87;60.35
78573;BME280;67862;0.000;0.000;2023-07-31T01:52:11;98798.56;;;23.89;60.46
78573;BME280;67862;0.000;0.000;2023-07-31T01:54:36;98799.69;;;23.88;60.03
78573;BME280;67862;0.000;0.000;2023-07-31T01:57:02;98796.94;;;23.88;60.30
78573;BME280;67862;0.000;0.000;2023-07-31T01:59:27;98799.69;;;23.88;60.43
78573;BME280;67862;0.000;0.000;2023-07-31T02:01:54;98807.09;;;23.87;60.12
78573;BME280;67862;0.000;0.000;2023-07-31T02:04:19;98805.47;;;23.86;60.43
78573;BME280;67862;0.000;0.000;2023-07-31T02:06:44;98806.28;;;23.87;60.33
78573;BME280;67862;0.000;0.000;2023-07-31T02:09:10;98800.81;;;23.87;60.09
78573;BME280;67862;0.000;0.000;2023-07-31T02:11:35;98803.06;;;23.85;60.38
78573;BME280;67862;0.000;0.000;2023-07-31T02:14:00;98801.13;;;23.85;60.28
78573;BME280;67862;0.000;0.000;2023-07-31T02:16:26;98798.38;;;23.85;60.34
78573;BME280;67862;0.000;0.000;2023-07-31T02:18:51;98798.38;;;23.85;60.21
78573;BME280;67862;0.000;0.000;2023-07-31T02:21:16;98792.91;;;23.85;60.19
78573;BME280;67862;0.000;0.000;2023-07-31T02:23:42;98797.56;;;23.85;60.05
78573;BME280;67862;0.000;0.000;2023-07-31T02:26:07;98794.03;;;23.84;60.15
78573;BME280;67862;0.000;0.000;2023-07-31T02:28:32;98791.28;;;23.84;60.28
78573;BME280;67862;0.000;0.000;2023-07-31T02:30:58;98789.66;;;23.83;60.38
78573;BME280;67862;0.000;0.000;2023-07-31T02:33:26;98785.00;;;23.84;60.10
78573;BME280;67862;0.000;0.000;2023-07-31T02:35:52;98801.44;;;23.84;60.36
78573;BME280;67862;0.000;0.000;2023-07-31T02:38:17;98795.13;;;23.83;60.22
78573;BME280;67862;0.000;0.000;2023-07-31T02:40:42;98795.97;;;23.84;60.51
78573;BME280;67862;0.000;0.000;2023-07-31T02:43:08;98791.56;;;23.83;60.31
78573;BME280;67862;0.000;0.000;2023-07-31T02:45:33;98790.47;;;23.84;60.36
78573;BME280;67862;0.000;0.000;2023-07-31T02:47:59;98788.03;;;23.82;60.03
78573;BME280;67862;0.000;0.000;2023-07-31T02:50:24;98785.28;;;23.82;60.02
78573;BME280;67862;0.000;0.000;2023-07-31T02:52:49;98794.31;;;23.83;60.33
78573;BME280;67862;0.000;0.000;2023-07-31T02:55:15;98802.06;;;23.81;60.02
78573;BME280;67862;0.000;0.000;2023-07-31T02:57:40;98802.06;;;23.81;60.35
78573;BME280;67862;0.000;0.000;2023-07-31T03:00:06;98802.06;;;23.81;60.17
78573;BME280;67862;0.000;0.000;2023-07-31T03:02:31;98800.94;;;23.82;60.29
78573;BME280;67862;0.000;0.000;2023-07-31T03:04:57;98802.06;;;23.81;60.21
78573;BME280;67862;0.000;0.000;2023-07-31T03:07:22;98804.81;;;23.81;60.04
78573;BME280;67862;0.000;0.000;2023-07-31T03:09:47;98815.75;;;23.81;60.41
78573;BME280;67862;0.000;0.000;2023-07-31T03:12:13;98805.94;;;23.80;60.39
78573;BME280;67862;0.000;0.000;2023-07-31T03:14:38;98813.03;;;23.81;60.27
78573;BME280;67862;0.000;0.000;2023-07-31T03:17:04;98822.38;;;23.80;60.39
78573;BME280;67862;0.000;0.000;2023-07-31T03:19:32;98816.88;;;23.80;60.33
78573;BME280;67862;0.000;0.000;2023-07-31T03:21:58;98825.44;;;23.78;60.22
78573;BME280;67862;0.000;0.000;2023-07-31T03:24:23;98830.09;;;23.78;60.12
78573;BME280;67862;0.000;0.000;2023-07-31T03:26:49;98837.19;;;23.79;60.36
78573;BME280;67862;0.000;0.000;2023-07-31T03:29:14;98828.97;;;23.79;60.04
78573;BME280;67862;0.000;0.000;2023-07-31T03:31:39;98828.97;;;23.79;60.45
78573;BME280;67862;0.000;0.000;2023-07-31T03:34:05;98830.09;;;23.78;60.19
78573;BME280;67862;0.000;0.000;2023-07-31T03:36:30;98836.41;;;23.78;60.42
78573;BME280;67862;0.000;0.000;2023-07-31T03:38:55;98830.09;;;23.78;60.19
78573;BME280;67862;0.000;0.000;2023-07-31T03:41:21;98833.16;;;23.76;60.40
78573;BME280;67862;0.000;0.000;2023-07-31T03:43:49;98833.16;;;23.76;60.08
78573;BME280;67862;0.000;0.000;2023-07-31T03:46:16;98829.31;;;23.77;60.22
78573;BME280;67862;0.000;0.000;2023-07-31T03:48:41;98838.66;;;23.76;60.22
78573;BME280;67862;0.000;0.000;2023-07-31T03:51:07;98839.47;;;23.77;60.34
78573;BME280;67862;0.000;0.000;2023-07-31T03:53:32;98838.66;;;23.76;60.38
78573;BME280;67862;0.000;0.000;2023-07-31T03:55:57;98841.38;;;23.76;60.27
78573;BME280;67862;0.000;0.000;2023-07-31T03:58:23;98839.47;;;23.77;60.03
78573;BME280;67862;0.000;0.000;2023-07-31T04:00:48;98834.28;;;23.75;60.02
78573;BME280;67862;0.000;0.000;2023-07-31T04:03:13;98832.34;;;23.76;60.46
78573;BME280;67862;0.000;0.000;2023-07-31T04:05:39;98830.75;;;23.75;60.21
78573;BME280;67862;0.000;0.000;2023-07-31T04:08:05;98831.56;;;23.75;60.30
78573;BME280;67862;0.000;0.000;2023-07-31T04:10:30;98836.22;;;23.75;60.16
78573;BME280;67862;0.000;0.000;2023-07-31T04:12:58;98836.22;;;23.75;60.08
78573;BME280;67862;0.000;0.000;2023-07-31T04:15:23;98840.91;;;23.74;60.38
78573;BME280;67862;0.000;0.000;2023-07-31T04:17:48;98837.31;;;23.74;60.05
78573;BME280;67862;0.000;0.000;2023-07-31T04:20:14;98842.81;;;23.74;60.07
78573;BME280;67862;0.000;0.000;2023-07-31T04:22:39;98842.81;;;23.74;60.41
78573;BME280;67862;0.000;0.000;2023-07-31T04:25:04;98839.25;;;23.73;60.18
78573;BME280;67862;0.000;0.000;2023-07-31T04:27:30;98840.06;;;23.74;60.31
78573;BME280;67862;0.000;0.000;2023-07-31T04:29:56;98839.25;;;23.73;60.51
78573;BME280;67862;0.000;0.000;2023-07-31T04:32:21;98836.50;;;23.73;60.29
78573;BME280;67862;0.000;0.000;2023-07-31T04:34:46;98837.31;;;23.74;60.49
78573;BME280;67862;0.000;0.000;2023-07-31T04:37:12;98838.44;;;23.73;60.47
78573;BME280;67862;0.000;0.000;2023-07-31T04:39:37;98843.94;;;23.73;60.43
78573;BME280;67862;0.000;0.000;2023-07-31T04:42:02;98843.13;;;23.72;60.56
78573;BME280;67862;0.000;0.000;2023-07-31T04:44:28;98843.13;;;23.72;60.25
78573;BME280;67862;0.000;0.000;2023-07-31T04:46:53;98847.78;;;23.72;60.17
78573;BME280;67862;0.000;0.000;2023-07-31T04:49:18;98847.78;;;23.72;60.41
78573;BME280;67862;0.000;0.000;2023-07-31T04:51:44;98839.56;;;23.72;60.32
78573;BME280;67862;0.000;0.000;2023-07-31T04:54:09;98845.06;;;23.72;60.21
78573;BME280;67862;0.000;0.000;2023-07-31T04:56:35;98842.31;;;23.72;60.04
78573;BME280;67862;0.000;0.000;2023-07-31T04:59:00;98847.78;;;23.72;60.10
78573;BME280;67862;0.000;0.000;2023-07-31T05:01:25;98852.47;;;23.71;60.47
78573;BME280;67862;0.000;0.000;2023-07-31T05:03:51;98847.00;;;23.71;60.11
78573;BME280;67862;0.000;0.000;2023-07-31T05:06:17;98851.66;;;23.70;60.33
78573;BME280;67862;0.000;0.000;2023-07-31T05:08:42;98850.84;;;23.70;60.11
78573;BME280;67862;0.000;0.000;2023-07-31T05:11:07;98851.66;;;23.70;60.29
78573;BME280;67862;0.000;0.000;2023-07-31T05:13:33;98858.28;;;23.69;60.37
78573;BME280;67862;0.000;0.000;2023-07-31T05:15:58;98859.06;;;23.70;60.35
78573;BME280;67862;0.000;0.000;2023-07-31T05:18:23;98856.34;;;23.70;60.38
78573;BME280;67862;0.000;0.000;2023-07-31T05:20:49;98855.53;;;23.69;60.32
78573;BME280;67862;0.000;0.000;2023-07-31T05:23:14;98853.59;;;23.70;60.23
78573;BME280;67862;0.000;0.000;2023-07-31T05:25:39;98855.53;;;23.69;60.21
78573;BME280;67862;0.000;0.000;2023-07-31T05:28:05;98855.53;;;23.69;60.25
78573;BME280;67862;0.000;0.000;2023-07-31T05:30:30;98852.78;;;23.69;60.46
78573;BME280;67862;0.000;0.000;2023-07-31T05:32:56;98860.19;;;23.69;60.04
78573;BME280;67862;0.000;0.000;2023-07-31T05:35:21;98864.88;;;23.68;60.30
78573;BME280;67862;0.000;0.000;2023-07-31T05:37:47;98867.63;;;23.68;60.28
78573;BME280;67862;0.000;0.000;2023-07-31T05:40:12;98862.13;;;23.68;60.34
78573;BME280;67862;0.000;0.000;2023-07-31T05:42:38;98856.66;;;23.68;60.26
78573;BME280;67862;0.000;0.000;2023-07-31T05:45:06;98862.13;;;23.68;60.23
78573;BME280;67862;0.000;0.000;2023-07-31T05:47:32;98857.47;;;23.69;60.20
78573;BME280;67862;0.000;0.000;2023-07-31T05:49:57;98859.41;;;23.68;60.47
78573;BME280;67862;0.000;0.000;2023-07-31T05:52:23;98860.19;;;23.69;60.22
78573;BME280;67862;0.000;0.000;2023-07-31T05:54:48;98869.56;;;23.68;60.33
78573;BME280;67862;0.000;0.000;2023-07-31T05:57:13;98867.63;;;23.68;60.22
78573;BME280;67862;0.000;0.000;2023-07-31T05:59:39;98870.34;;;23.68;60.16
78573;BME280;67862;0.000;0.000;2023-07-31T06:02:04;98866.81;;;23.68;60.12
78573;BME280;67862;0.000;0.000;2023-07-31T06:04:33;98871.47;;;23.67;60.13
78573;BME280;67862;0.000;0.000;2023-07-31T06:06:58;98871.47;;;23.67;60.15
78573;BME280;67862;0.000;0.000;2023-07-31T06:09:24;98868.75;;;23.67;60.26
78573;BME280;67862;0.000;0.000;2023-07-31T06:11:54;98871.47;;;23.67;60.32
78573;BME280;67862;0.000;0.000;2023-07-31T06:14:19;98880.50;;;23.68;60.14
78573;BME280;67862;0.000;0.000;2023-07-31T06:16:44;98874.22;;;23.67;60.26
78573;BME280;67862;0.000;0.000;2023-07-31T06:19:10;98875.34;;;23.66;60.22
78573;BME280;67862;0.000;0.000;2023-07-31T06:21:36;98872.59;;;23.66;60.02
78573;BME280;67862;0.000;0.000;2023-07-31T06:24:05;98883.56;;;23.66;60.08
78573;BME280;67862;0.000;0.000;2023-07-31T06:26:30;98878.91;;;23.67;60.49
78573;BME280;67862;0.000;0.000;2023-07-31T06:28:56;98878.91;;;23.67;60.29
78573;BME280;67862;0.000;0.000;2023-07-31T06:31:21;98894.53;;;23.66;60.30
78573;BME280;67862;0.000;0.000;2023-07-31T06:33:48;98876.16;;;23.67;60.21
78573;BME280;67862;0.000;0.000;2023-07-31T06:36:14;98878.91;;;23.67;60.50
78573;BME280;67862;0.000;0.000;2023-07-31T06:38:39;98878.09;;;23.66;60.23
78573;BME280;67862;0.000;0.000;2023-07-31T06:41:05;98875.34;;;23.66;60.33
78573;BME280;67862;0.000;0.000;2023-07-31T06:43:33;98866.31;;;23.66;60.48
78573;BME280;67862;0.000;0.000;2023-07-31T06:46:00;98875.34;;;23.66;60.48
78573;BME280;67862;0.000;0.000;2023-07-31T06:48:29;98876.47;;;23.65;60.45
78573;BME280;67862;0.000;0.000;2023-07-31T06:50:54;98886.31;;;23.66;60.05
78573;BME280;67862;0.000;0.000;2023-07-31T06:53:20;98883.88;;;23.65;60.25
78573;BME280;67862;0.000;0.000;2023-07-31T06:55:45;98892.91;;;23.65;60.33
78573;BME280;67862;0.000;0.000;2023-07-31T06:58:11;98893.72;;;23.66;60.30
78573;BME280;67862;0.000;0.000;2023-07-31T07:00:36;98892.91;;;23.65;60.16
78573;BME280;67862;0.000;0.000;2023-07-31T07:03:02;98898.41;;;23.65;60.47
78573;BME280;67862;0.000;0.000;2023-07-31T07:05:27;98895.66;;;23.65;60.34
78573;BME280;67862;0.000;0.000;2023-07-31T07:07:52;98901.13;;;23.65;60.45
78573;BME280;67862;0.000;0.000;2023-07-31T07:10:20;98886.31;;;23.66;60.18
78573;BME280;67862;0.000;0.000;2023-07-31T07:12:46;98894.03;;;23.64;60.27
78573;BME280;67862;0.000;0.000;2023-07-31T07:15:11;98900.31;;;23.65;60.09
78573;BME280;67862;0.000;0.000;2023-07-31T07:17:37;98897.59;;;23.65;60.21
78573;BME280;67862;0.000;0.000;2023-07-31T07:20:02;98897.59;;;23.65;60.17
78573;BME280;67862;0.000;0.000;2023-07-31T07:22:28;98894.84;;;23.65;60.42
78573;BME280;67862;0.000;0.000;2023-07-31T07:24:54;98892.91;;;23.65;60.29
78573;BME280;67862;0.000;0.000;2023-07-31T07:27:19;98896.78;;;23.64;60.04
78573;BME280;67862;0.000;0.000;2023-07-31T07:29:50;98905.00;;;23.64;60.15
78573;BME280;67862;0.000;0.000;2023-07-31T07:32:22;98899.53;;;23.64;60.25
78573;BME280;67862;0.000;0.000;2023-07-31T07:34:48;98896.78;;;23.64;60.16
78573;BME280;67862;0.000;0.000;2023-07-31T07:37:17;98907.75;;;23.64;60.38
78573;BME280;67862;0.000;0.000;2023-07-31T07:39:42;98906.91;;;23.64;60.03
78573;BME280;67862;0.000;0.000;2023-07-31T07:42:07;98910.47;;;23.64;59.90
78573;BME280;67862;0.000;0.000;2023-07-31T07:44:33;98909.66;;;23.64;59.98
78573;BME280;67862;0.000;0.000;2023-07-31T07:46:58;98911.56;;;23.63;60.12
78573;BME280;67862;0.000;0.000;2023-07-31T07:49:24;98906.09;;;23.63;60.07
78573;BME280;67862;0.000;0.000;2023-07-31T07:51:49;98907.75;;;23.64;59.93
78573;BME280;67862;0.000;0.000;2023-07-31T07:54:15;98911.56;;;23.63;59.90
78573;BME280;67862;0.000;0.000;2023-07-31T07:56:42;98912.38;;;23.64;60.27
78573;BME280;67862;0.000;0.000;2023-07-31T07:59:08;98908.84;;;23.63;60.05
78573;BME280;67862;0.000;0.000;2023-07-31T08:01:33;98901.41;;;23.64;59.90
78573;BME280;67862;0.000;0.000;2023-07-31T08:03:58;98895.94;;;23.64;59.87
78573;BME280;67862;0.000;0.000;2023-07-31T08:06:24;98900.63;;;23.63;60.23
78573;BME280;67862;0.000;0.000;2023-07-31T08:08:49;98895.94;;;23.64;59.91
78573;BME280;67862;0.000;0.000;2023-07-31T08:11:15;98902.25;;;23.64;60.08
78573;BME280;67862;0.000;0.000;2023-07-31T08:13:40;98903.34;;;23.63;60.27
78573;BME280;67862;0.000;0.000;2023-07-31T08:16:05;98889.66;;;23.63;60.08
78573;BME280;67862;0.000;0.000;2023-07-31T08:18:31;98897.88;;;23.63;60.11
78573;BME280;67862;0.000;0.000;2023-07-31T08:20:57;98896.78;;;23.64;59.96
78573;BME280;67862;0.000;0.000;2023-07-31T08:23:25;98908.84;;;23.63;59.86
78573;BME280;67862;0.000;0.000;2023-07-31T08:25:50;98899.81;;;23.63;60.13
78573;BME280;67862;0.000;0.000;2023-07-31T08:28:16;98900.63;;;23.63;59.84
78573;BME280;67862;0.000;0.000;2023-07-31T08:30:42;98906.09;;;23.63;60.00
78573;BME280;67862;0.000;0.000;2023-07-31T08:33:07;98899.81;;;23.63;60.22
78573;BME280;67862;0.000;0.000;2023-07-31T08:35:33;98899.81;;;23.63;60.22
78573;BME280;67862;0.000;0.000;2023-07-31T08:37:58;98902.53;;;23.63;60.25
78573;BME280;67862;0.000;0.000;2023-07-31T08:40:24;98899.00;;;23.62;59.86
78573;BME280;67862;0.000;0.000;2023-07-31T08:42:51;98894.31;;;23.63;59.89
78573;BME280;67862;0.000;0.000;2023-07-31T08:45:17;98886.09;;;23.63;60.18
78573;BME280;67862;0.000;0.000;2023-07-31T08:47:44;98881.44;;;23.63;60.21
78573;BME280;67862;0.000;0.000;2023-07-31T08:50:11;98888.84;;;23.63;59.78
78573;BME280;67862;0.000;0.000;2023-07-31T08:52:37;98890.78;;;23.62;59.97
78573;BME280;67862;0.000;0.000;2023-07-31T08:55:05;98892.41;;;23.63;60.08
78573;BME280;67862;0.000;0.000;2023-07-31T08:57:30;98888.84;;;23.63;60.20
78573;BME280;67862;0.000;0.000;2023-07-31T08:59:56;98895.13;;;23.63;59.82
78573;BME280;67862;0.000;0.000;2023-07-31T09:02:22;98888.03;;;23.62;59.90
78573;BME280;67862;0.000;0.000;2023-07-31T09:04:50;98888.03;;;23.62;59.84
78573;BME280;67862;0.000;0.000;2023-07-31T09:07:16;98889.66;;;23.63;60.21
78573;BME280;67862;0.000;0.000;2023-07-31T09:09:41;98888.84;;;23.63;60.13
78573;BME280;67862;0.000;0.000;2023-07-31T09:12:07;98889.66;;;23.63;59.81
78573;BME280;67862;0.000;0.000;2023-07-31T09:14:33;98877.06;;;23.62;60.04
78573;BME280;67862;0.000;0.000;2023-07-31T09:16:58;98883.38;;;23.63;60.09
78573;BME280;67862;0.000;0.000;2023-07-31T09:19:29;98877.06;;;23.62;59.77
78573;BME280;67862;0.000;0.000;2023-07-31T09:21:55;98887.22;;;23.62;59.78
78573;BME280;67862;0.000;0.000;2023-07-31T09:24:33;98874.34;;;23.62;59.89
78573;BME280;67862;0.000;0.000;2023-07-31T09:26:59;98884.50;;;23.62;60.02
78573;BME280;67862;0.000;0.000;2023-07-31T09:29:25;98870.78;;;23.62;60.19
78573;BME280;67862;0.000;0.000;2023-07-31T09:31:52;98871.59;;;23.62;59.85
78573;BME280;67862;0.000;0.000;2023-07-31T09:34:17;98884.50;;;23.62;60.00
78573;BME280;67862;0.000;0.000;2023-07-31T09:36:43;98871.59;;;23.62;59.63
78573;BME280;67862;0.000;0.000;2023-07-31T09:39:10;98877.06;;;23.62;59.93
78573;BME280;67862;0.000;0.000;2023-07-31T09:41:36;98876.28;;;23.62;59.96
78573;BME280;67862;0.000;0.000;2023-07-31T09:44:03;98879.81;;;23.62;59.76
78573;BME280;67862;0.000;0.000;2023-07-31T09:46:28;98874.34;;;23.62;59.69
78573;BME280;67862;0.000;0.000;2023-07-31T09:49:03;98875.16;;;23.63;59.61
78573;BME280;67862;0.000;0.000;2023-07-31T09:51:30;98873.53;;;23.62;60.16
78573;BME280;67862;0.000;0.000;2023-07-31T09:53:56;98873.53;;;23.62;59.91
78573;BME280;67862;0.000;0.000;2023-07-31T09:56:24;98866.13;;;23.62;60.11
78573;BME280;67862;0.000;0.000;2023-07-31T09:58:50;98864.50;;;23.61;59.83
78573;BME280;67862;0.000;0.000;2023-07-31T10:01:16;98868.03;;;23.62;60.02
78573;BME280;67862;0.000;0.000;2023-07-31T10:03:42;98864.50;;;23.61;59.66
78573;BME280;67862;0.000;0.000;2023-07-31T10:06:09;98853.53;;;23.61;59.65
78573;BME280;67862;0.000;0.000;2023-07-31T10:08:35;98864.50;;;23.61;59.70
78573;BME280;67862;0.000;0.000;2023-07-31T10:11:01;98865.31;;;23.62;59.74
78573;BME280;67862;0.000;0.000;2023-07-31T10:13:28;98857.09;;;23.62;59.67
78573;BME280;67862;0.000;0.000;2023-07-31T10:15:54;98854.34;;;23.62;60.10
78573;BME280;67862;0.000;0.000;2023-07-31T10:18:23;98862.56;;;23.62;59.98
78573;BME280;67862;0.000;0.000;2023-07-31T10:20:49;98865.31;;;23.62;60.08
78573;BME280;67862;0.000;0.000;2023-07-31T10:23:19;98866.13;;;23.62;59.96
78573;BME280;67862;0.000;0.000;2023-07-31T10:25:47;98866.91;;;23.63;59.91
78573;BME280;67862;0.000;0.000;2023-07-31T10:28:15;98868.03;;;23.62;60.05
78573;BME280;67862;0.000;0.000;2023-07-31T10:30:40;98864.50;;;23.61;59.96
78573;BME280;67862;0.000;0.000;2023-07-31T10:33:06;98866.13;;;23.62;59.64
78573;BME280;67862;0.000;0.000;2023-07-31T10:35:32;98859.03;;;23.61;59.67
78573;BME280;67862;0.000;0.000;2023-07-31T10:38:19;98854.34;;;23.62;59.90
78573;BME280;67862;0.000;0.000;2023-07-31T10:40:43;98865.31;;;23.62;59.54
78573;BME280;67862;0.000;0.000;2023-07-31T10:43:09;98863.38;;;23.62;59.75
78573;BME280;67862;0.000;0.000;2023-07-31T10:45:48;98859.81;;;23.62;59.52
78573;BME280;67862;0.000;0.000;2023-07-31T10:48:17;98857.09;;;23.62;59.78
78573;BME280;67862;0.000;0.000;2023-07-31T10:50:55;98866.13;;;23.62;59.57
78573;BME280;67862;0.000;0.000;2023-07-31T10:53:28;98860.63;;;23.62;59.74
78573;BME280;67862;0.000;0.000;2023-07-31T10:55:57;98868.03;;;23.62;59.47
78573;BME280;67862;0.000;0.000;2023-07-31T10:58:23;98859.81;;;23.62;59.46
78573;BME280;67862;0.000;0.000;2023-07-31T11:00:54;98859.81;;;23.62;59.62
78573;BME280;67862;0.000;0.000;2023-07-31T11:03:24;98859.03;;;23.61;59.45
78573;BME280;67862;0.000;0.000;2023-07-31T11:06:00;98866.13;;;23.62;59.76
78573;BME280;67862;0.000;0.000;2023-07-31T11:08:30;98866.91;;;23.63;59.69
78573;BME280;67862;0.000;0.000;2023-07-31T11:13:31;98856.28;;;23.61;59.50
78573;BME280;67862;0.000;0.000;2023-07-31T11:15:56;98848.88;;;23.62;59.63
78573;BME280;67862;0.000;0.000;2023-07-31T11:18:22;98858.69;;;23.63;59.48
78573;BME280;67862;0.000;0.000;2023-07-31T11:20:53;98854.34;;;23.62;59.62
78573;BME280;67862;0.000;0.000;2023-07-31T11:23:19;98853.22;;;23.63;59.32
78573;BME280;67862;0.000;0.000;2023-07-31T11:25:45;98851.28;;;23.63;59.71
78573;BME280;67862;0.000;0.000;2023-07-31T11:28:13;98839.53;;;23.63;59.52
78573;BME280;67862;0.000;0.000;2023-07-31T11:30:39;98843.06;;;23.63;59.57
78573;BME280;67862;0.000;0.000;2023-07-31T11:33:06;98842.25;;;23.63;59.46
78573;BME280;67862;0.000;0.000;2023-07-31T11:35:41;98844.19;;;23.62;59.54
78573;BME280;67862;0.000;0.000;2023-07-31T11:38:07;98844.19;;;23.62;59.34
78573;BME280;67862;0.000;0.000;2023-07-31T11:40:40;98842.25;;;23.63;59.68
78573;BME280;67862;0.000;0.000;2023-07-31T11:43:09;98833.22;;;23.62;59.43
78573;BME280;67862;0.000;0.000;2023-07-31T11:45:41;98826.63;;;23.63;59.37
78573;BME280;67862;0.000;0.000;2023-07-31T11:48:07;98834.03;;;23.63;59.56
78573;BME280;67862;0.000;0.000;2023-07-31T11:50:33;98837.59;;;23.63;59.55
78573;BME280;67862;0.000;0.000;2023-07-31T11:52:59;98834.84;;;23.63;59.56
78573;BME280;67862;0.000;0.000;2023-07-31T11:55:25;98835.66;;;23.64;59.31
78573;BME280;67862;0.000;0.000;2023-07-31T11:57:51;98834.03;;;23.63;59.32
78573;BME280;67862;0.000;0.000;2023-07-31T12:00:18;98829.38;;;23.63;59.64
78573;BME280;67862;0.000;0.000;2023-07-31T12:02:44;98823.88;;;23.63;59.34
78573;BME280;67862;0.000;0.000;2023-07-31T12:05:13;98828.28;;;23.64;59.50
78573;BME280;67862;0.000;0.000;2023-07-31T12:13:00;98823.88;;;23.63;59.52
78573;BME280;67862;0.000;0.000;2023-07-31T12:15:33;98832.91;;;23.64;59.62
78573;BME280;67862;0.000;0.000;2023-07-31T12:17:58;98825.53;;;23.64;59.35
78573;BME280;67862;0.000;0.000;2023-07-31T12:20:24;98822.78;;;23.64;59.33
78573;BME280;67862;0.000;0.000;2023-07-31T12:22:49;98818.41;;;23.63;59.21
78573;BME280;67862;0.000;0.000;2023-07-31T12:25:15;98809.09;;;23.64;59.21
78573;BME280;67862;0.000;0.000;2023-07-31T12:27:43;98808.25;;;23.64;59.17
78573;BME280;67862;0.000;0.000;2023-07-31T12:30:25;98814.56;;;23.64;59.19
78573;BME280;67862;0.000;0.000;2023-07-31T12:32:51;98814.56;;;23.64;59.61
78573;BME280;67862;0.000;0.000;2023-07-31T12:35:17;98805.50;;;23.64;59.54
78573;BME280;67862;0.000;0.000;2023-07-31T12:37:42;98809.09;;;23.64;59.23
78573;BME280;67862;0.000;0.000;2023-07-31T12:40:07;98804.41;;;23.65;59.27
78573;BME280;67862;0.000;0.000;2023-07-31T12:42:33;98800.88;;;23.64;59.36
78573;BME280;67862;0.000;0.000;2023-07-31T12:45:01;98802.47;;;23.65;59.21
78573;BME280;67862;0.000;0.000;2023-07-31T12:47:27;98800.88;;;23.64;59.44
78573;BME280;67862;0.000;0.000;2023-07-31T12:49:52;98802.47;;;23.65;59.50
78573;BME280;67862;0.000;0.000;2023-07-31T12:52:18;98790.72;;;23.65;59.22
78573;BME280;67862;0.000;0.000;2023-07-31T12:54:46;98792.66;;;23.64;59.60
78573;BME280;67862;0.000;0.000;2023-07-31T12:57:12;98792.66;;;23.64;59.34
78573;BME280;67862;0.000;0.000;2023-07-31T12:59:37;98789.59;;;23.66;59.12
78573;BME280;67862;0.000;0.000;2023-07-31T13:02:08;98788.78;;;23.65;59.36
78573;BME280;67862;0.000;0.000;2023-07-31T13:04:34;98786.03;;;23.65;59.41
78573;BME280;67862;0.000;0.000;2023-07-31T13:06:59;98779.75;;;23.65;59.33
78573;BME280;67862;0.000;0.000;2023-07-31T13:09:25;98775.06;;;23.65;59.53
78573;BME280;67862;0.000;0.000;2023-07-31T13:11:50;98772.34;;;23.65;59.10
78573;BME280;67862;0.000;0.000;2023-07-31T13:14:16;98770.72;;;23.64;59.16
78573;BME280;67862;0.000;0.000;2023-07-31T13:16:42;98773.94;;;23.66;59.32
78573;BME280;67862;0.000;0.000;2023-07-31T13:19:10;98767.66;;;23.66;59.55